LGQ weather

Nueva Loja Airport
Lago Agrio, Sucumbios Province, Ecuador

Public forecast

Using degrees Celsius for public forecast. Weather courtesy of forecast.io.

Current aviation weather report (METAR) for Nueva Loja Airport

Retrieved 2019/10/16 23:00 UTC (1 hour ago):

SENL 162300Z 26003KT 9999 BKN026 SCT100 23/22 Q1013 RMK A2992

Aviation forecast (TAF) for Nueva Loja Airport

Forecast is more than 12 hours old.

Retrieved 2018/09/09 12:03 UTC (1 year ago):

TAF TAF SCDA 091040Z 0912/1012 19004KT 9999 OVC020 TX18/0917Z TN16/1006ZLVA0571 091200 GG EBBRYZYX EBBRYZYZ EGGYYBYA KMKMYTYX KWBCYMYX MPLBYFYX MPTOYMYX 091200 SEQUYZYX SAEQ01 SEQU 091200 RRB METAR SENL 091200Z 36002KT 9999 SCT030 BKN100 22/21 Q1013 RMK A2994